sensor_id;sensor_type;location;lat;lon;timestamp;P1;durP1;ratioP1;P2;durP2;ratioP2
7471;SDS011;3777;48.722;8.110;2023-02-15T00:00:53;86.97;;;32.63;;
7471;SDS011;3777;48.722;8.110;2023-02-15T00:03:20;73.33;;;31.13;;
7471;SDS011;3777;48.722;8.110;2023-02-15T00:05:47;93.53;;;32.40;;
7471;SDS011;3777;48.722;8.110;2023-02-15T00:08:14;87.03;;;31.90;;
7471;SDS011;3777;48.722;8.110;2023-02-15T00:10:41;53.03;;;28.57;;
7471;SDS011;3777;48.722;8.110;2023-02-15T00:13:08;52.77;;;29.97;;
7471;SDS011;3777;48.722;8.110;2023-02-15T00:15:35;57.27;;;30.70;;
7471;SDS011;3777;48.722;8.110;2023-02-15T00:18:03;64.37;;;32.50;;
7471;SDS011;3777;48.722;8.110;2023-02-15T00:20:30;69.67;;;32.33;;
7471;SDS011;3777;48.722;8.110;2023-02-15T00:22:58;72.30;;;32.67;;
7471;SDS011;3777;48.722;8.110;2023-02-15T00:25:25;54.30;;;29.33;;
7471;SDS011;3777;48.722;8.110;2023-02-15T00:27:52;48.80;;;28.50;;
7471;SDS011;3777;48.722;8.110;2023-02-15T00:30:19;52.10;;;29.17;;
7471;SDS011;3777;48.722;8.110;2023-02-15T00:32:46;74.20;;;31.57;;
7471;SDS011;3777;48.722;8.110;2023-02-15T00:35:15;66.33;;;30.63;;
7471;SDS011;3777;48.722;8.110;2023-02-15T00:37:42;52.97;;;27.40;;
7471;SDS011;3777;48.722;8.110;2023-02-15T00:40:09;60.63;;;30.00;;
7471;SDS011;3777;48.722;8.110;2023-02-15T00:42:36;43.27;;;26.07;;
7471;SDS011;3777;48.722;8.110;2023-02-15T00:45:03;66.60;;;29.40;;
7471;SDS011;3777;48.722;8.110;2023-02-15T00:47:31;59.03;;;29.30;;
7471;SDS011;3777;48.722;8.110;2023-02-15T00:49:58;53.50;;;30.40;;
7471;SDS011;3777;48.722;8.110;2023-02-15T00:52:27;66.53;;;29.17;;
7471;SDS011;3777;48.722;8.110;2023-02-15T00:54:54;60.27;;;28.00;;
7471;SDS011;3777;48.722;8.110;2023-02-15T00:57:20;54.30;;;29.03;;
7471;SDS011;3777;48.722;8.110;2023-02-15T00:59:47;59.37;;;29.33;;
7471;SDS011;3777;48.722;8.110;2023-02-15T01:02:14;64.87;;;30.10;;
7471;SDS011;3777;48.722;8.110;2023-02-15T01:04:41;59.80;;;27.43;;
7471;SDS011;3777;48.722;8.110;2023-02-15T01:07:08;46.10;;;26.67;;
7471;SDS011;3777;48.722;8.110;2023-02-15T01:09:37;71.20;;;29.60;;
7471;SDS011;3777;48.722;8.110;2023-02-15T01:12:04;61.80;;;28.80;;
7471;SDS011;3777;48.722;8.110;2023-02-15T01:14:31;67.57;;;30.33;;
7471;SDS011;3777;48.722;8.110;2023-02-15T01:16:58;69.63;;;29.13;;
7471;SDS011;3777;48.722;8.110;2023-02-15T01:19:25;57.23;;;27.90;;
7471;SDS011;3777;48.722;8.110;2023-02-15T01:21:52;68.47;;;30.37;;
7471;SDS011;3777;48.722;8.110;2023-02-15T01:24:19;71.03;;;29.20;;
7471;SDS011;3777;48.722;8.110;2023-02-15T01:26:47;54.63;;;27.70;;
7471;SDS011;3777;48.722;8.110;2023-02-15T01:29:14;51.67;;;27.00;;
7471;SDS011;3777;48.722;8.110;2023-02-15T01:31:41;48.57;;;25.40;;
7471;SDS011;3777;48.722;8.110;2023-02-15T01:34:08;62.20;;;27.57;;
7471;SDS011;3777;48.722;8.110;2023-02-15T01:36:34;56.63;;;27.23;;
7471;SDS011;3777;48.722;8.110;2023-02-15T01:39:01;69.13;;;27.57;;
7471;SDS011;3777;48.722;8.110;2023-02-15T01:41:28;62.90;;;27.60;;
7471;SDS011;3777;48.722;8.110;2023-02-15T01:43:58;52.37;;;27.70;;
7471;SDS011;3777;48.722;8.110;2023-02-15T01:46:27;55.67;;;28.00;;
7471;SDS011;3777;48.722;8.110;2023-02-15T01:49:00;58.97;;;28.23;;
7471;SDS011;3777;48.722;8.110;2023-02-15T01:51:31;65.63;;;28.80;;
7471;SDS011;3777;48.722;8.110;2023-02-15T01:54:01;62.37;;;29.83;;
7471;SDS011;3777;48.722;8.110;2023-02-15T01:56:33;79.63;;;28.33;;
7471;SDS011;3777;48.722;8.110;2023-02-15T01:59:06;64.30;;;28.77;;
7471;SDS011;3777;48.722;8.110;2023-02-15T02:01:37;68.53;;;30.27;;
7471;SDS011;3777;48.722;8.110;2023-02-15T02:04:06;81.77;;;31.43;;
7471;SDS011;3777;48.722;8.110;2023-02-15T02:06:37;58.87;;;28.60;;
7471;SDS011;3777;48.722;8.110;2023-02-15T02:09:06;62.83;;;29.60;;
7471;SDS011;3777;48.722;8.110;2023-02-15T02:11:33;66.00;;;28.97;;
7471;SDS011;3777;48.722;8.110;2023-02-15T02:14:01;56.03;;;28.30;;
7471;SDS011;3777;48.722;8.110;2023-02-15T02:16:30;73.83;;;29.17;;
7471;SDS011;3777;48.722;8.110;2023-02-15T02:19:19;84.60;;;29.57;;
7471;SDS011;3777;48.722;8.110;2023-02-15T02:22:18;45.90;;;25.73;;
7471;SDS011;3777;48.722;8.110;2023-02-15T02:25:29;63.87;;;28.57;;
7471;SDS011;3777;48.722;8.110;2023-02-15T02:28:21;64.20;;;28.27;;
7471;SDS011;3777;48.722;8.110;2023-02-15T02:31:13;61.67;;;28.13;;
7471;SDS011;3777;48.722;8.110;2023-02-15T02:33:57;66.27;;;28.43;;
7471;SDS011;3777;48.722;8.110;2023-02-15T02:36:31;76.93;;;28.93;;
7471;SDS011;3777;48.722;8.110;2023-02-15T02:39:12;66.27;;;29.33;;
7471;SDS011;3777;48.722;8.110;2023-02-15T02:41:50;53.37;;;28.37;;
7471;SDS011;3777;48.722;8.110;2023-02-15T02:44:22;61.87;;;28.20;;
7471;SDS011;3777;48.722;8.110;2023-02-15T02:46:53;77.83;;;30.10;;
7471;SDS011;3777;48.722;8.110;2023-02-15T02:49:34;59.63;;;27.60;;
7471;SDS011;3777;48.722;8.110;2023-02-15T02:52:03;59.20;;;27.63;;
7471;SDS011;3777;48.722;8.110;2023-02-15T02:54:31;57.37;;;26.80;;
7471;SDS011;3777;48.722;8.110;2023-02-15T02:57:01;65.17;;;28.97;;
7471;SDS011;3777;48.722;8.110;2023-02-15T02:59:35;65.63;;;28.20;;
7471;SDS011;3777;48.722;8.110;2023-02-15T03:02:05;49.13;;;25.87;;
7471;SDS011;3777;48.722;8.110;2023-02-15T03:04:39;52.70;;;27.87;;
7471;SDS011;3777;48.722;8.110;2023-02-15T03:07:10;57.60;;;27.30;;
7471;SDS011;3777;48.722;8.110;2023-02-15T03:09:41;88.97;;;29.13;;
7471;SDS011;3777;48.722;8.110;2023-02-15T03:12:12;62.77;;;26.00;;
7471;SDS011;3777;48.722;8.110;2023-02-15T03:14:42;53.17;;;26.37;;
7471;SDS011;3777;48.722;8.110;2023-02-15T03:17:12;56.57;;;26.77;;
7471;SDS011;3777;48.722;8.110;2023-02-15T03:19:43;51.43;;;25.70;;
7471;SDS011;3777;48.722;8.110;2023-02-15T03:22:14;51.87;;;26.13;;
7471;SDS011;3777;48.722;8.110;2023-02-15T03:24:46;54.93;;;25.80;;
7471;SDS011;3777;48.722;8.110;2023-02-15T03:27:17;49.63;;;25.00;;
7471;SDS011;3777;48.722;8.110;2023-02-15T03:29:52;53.20;;;24.63;;
7471;SDS011;3777;48.722;8.110;2023-02-15T03:32:22;57.87;;;25.63;;
7471;SDS011;3777;48.722;8.110;2023-02-15T03:34:52;52.77;;;25.33;;
7471;SDS011;3777;48.722;8.110;2023-02-15T03:37:22;59.50;;;27.23;;
7471;SDS011;3777;48.722;8.110;2023-02-15T03:39:53;62.50;;;25.53;;
7471;SDS011;3777;48.722;8.110;2023-02-15T03:42:44;44.33;;;24.53;;
7471;SDS011;3777;48.722;8.110;2023-02-15T03:45:15;55.90;;;24.83;;
7471;SDS011;3777;48.722;8.110;2023-02-15T03:47:48;46.47;;;24.00;;
7471;SDS011;3777;48.722;8.110;2023-02-15T03:50:20;78.53;;;26.17;;
7471;SDS011;3777;48.722;8.110;2023-02-15T03:53:07;73.23;;;25.37;;
7471;SDS011;3777;48.722;8.110;2023-02-15T03:55:38;43.43;;;24.07;;
7471;SDS011;3777;48.722;8.110;2023-02-15T03:58:05;51.27;;;25.80;;
7471;SDS011;3777;48.722;8.110;2023-02-15T04:00:51;62.30;;;25.70;;
7471;SDS011;3777;48.722;8.110;2023-02-15T04:03:42;44.07;;;23.77;;
7471;SDS011;3777;48.722;8.110;2023-02-15T04:06:13;48.27;;;24.60;;
7471;SDS011;3777;48.722;8.110;2023-02-15T04:08:40;45.13;;;22.63;;
7471;SDS011;3777;48.722;8.110;2023-02-15T04:11:24;33.83;;;20.23;;
7471;SDS011;3777;48.722;8.110;2023-02-15T04:13:51;47.37;;;22.87;;
7471;SDS011;3777;48.722;8.110;2023-02-15T04:16:21;57.63;;;24.40;;
7471;SDS011;3777;48.722;8.110;2023-02-15T04:18:47;52.13;;;23.47;;
7471;SDS011;3777;48.722;8.110;2023-02-15T04:21:33;46.47;;;22.83;;
7471;SDS011;3777;48.722;8.110;2023-02-15T04:24:18;52.77;;;22.70;;
7471;SDS011;3777;48.722;8.110;2023-02-15T04:27:02;45.80;;;22.83;;
7471;SDS011;3777;48.722;8.110;2023-02-15T04:29:30;69.73;;;24.53;;
7471;SDS011;3777;48.722;8.110;2023-02-15T04:31:59;60.23;;;23.30;;
7471;SDS011;3777;48.722;8.110;2023-02-15T04:34:26;37.30;;;22.10;;
7471;SDS011;3777;48.722;8.110;2023-02-15T04:36:55;46.37;;;21.93;;
7471;SDS011;3777;48.722;8.110;2023-02-15T04:39:22;41.50;;;22.77;;
7471;SDS011;3777;48.722;8.110;2023-02-15T04:41:49;45.87;;;22.37;;
7471;SDS011;3777;48.722;8.110;2023-02-15T04:44:16;73.10;;;23.73;;
7471;SDS011;3777;48.722;8.110;2023-02-15T04:46:43;62.30;;;23.27;;
7471;SDS011;3777;48.722;8.110;2023-02-15T04:49:09;37.60;;;21.87;;
7471;SDS011;3777;48.722;8.110;2023-02-15T04:51:36;71.83;;;23.20;;
7471;SDS011;3777;48.722;8.110;2023-02-15T04:54:05;55.33;;;22.30;;
7471;SDS011;3777;48.722;8.110;2023-02-15T04:56:32;58.23;;;22.57;;
7471;SDS011;3777;48.722;8.110;2023-02-15T04:58:59;40.40;;;22.10;;
7471;SDS011;3777;48.722;8.110;2023-02-15T05:01:26;45.33;;;20.87;;
7471;SDS011;3777;48.722;8.110;2023-02-15T05:03:53;37.40;;;21.03;;
7471;SDS011;3777;48.722;8.110;2023-02-15T05:06:20;36.00;;;19.07;;
7471;SDS011;3777;48.722;8.110;2023-02-15T05:08:47;36.77;;;19.13;;
7471;SDS011;3777;48.722;8.110;2023-02-15T05:11:16;38.60;;;19.63;;
7471;SDS011;3777;48.722;8.110;2023-02-15T05:13:43;42.07;;;19.20;;
7471;SDS011;3777;48.722;8.110;2023-02-15T05:16:09;35.93;;;19.07;;
7471;SDS011;3777;48.722;8.110;2023-02-15T05:18:36;35.33;;;19.43;;
7471;SDS011;3777;48.722;8.110;2023-02-15T05:21:03;32.73;;;20.87;;
7471;SDS011;3777;48.722;8.110;2023-02-15T05:23:30;31.53;;;17.70;;
7471;SDS011;3777;48.722;8.110;2023-02-15T05:25:57;30.80;;;16.87;;
7471;SDS011;3777;48.722;8.110;2023-02-15T05:28:43;35.63;;;17.10;;
7471;SDS011;3777;48.722;8.110;2023-02-15T05:31:10;31.10;;;15.73;;
7471;SDS011;3777;48.722;8.110;2023-02-15T05:33:39;28.33;;;15.70;;
7471;SDS011;3777;48.722;8.110;2023-02-15T05:36:06;28.17;;;15.97;;
7471;SDS011;3777;48.722;8.110;2023-02-15T05:38:34;26.67;;;15.33;;
7471;SDS011;3777;48.722;8.110;2023-02-15T05:41:02;38.07;;;15.90;;
7471;SDS011;3777;48.722;8.110;2023-02-15T05:43:29;46.00;;;16.20;;
7471;SDS011;3777;48.722;8.110;2023-02-15T05:45:58;45.03;;;17.10;;
7471;SDS011;3777;48.722;8.110;2023-02-15T05:48:25;41.73;;;17.97;;
7471;SDS011;3777;48.722;8.110;2023-02-15T05:50:57;42.23;;;16.97;;
7471;SDS011;3777;48.722;8.110;2023-02-15T05:53:24;33.83;;;15.37;;
7471;SDS011;3777;48.722;8.110;2023-02-15T05:55:51;40.03;;;16.57;;
7471;SDS011;3777;48.722;8.110;2023-02-15T05:58:23;27.83;;;15.27;;
7471;SDS011;3777;48.722;8.110;2023-02-15T06:00:50;27.97;;;15.83;;
7471;SDS011;3777;48.722;8.110;2023-02-15T06:03:19;28.60;;;15.27;;
7471;SDS011;3777;48.722;8.110;2023-02-15T06:05:46;31.77;;;15.33;;
7471;SDS011;3777;48.722;8.110;2023-02-15T06:08:13;29.63;;;16.13;;
7471;SDS011;3777;48.722;8.110;2023-02-15T06:10:40;22.33;;;15.10;;
7471;SDS011;3777;48.722;8.110;2023-02-15T06:13:07;29.53;;;15.93;;
7471;SDS011;3777;48.722;8.110;2023-02-15T06:15:34;57.70;;;17.63;;
7471;SDS011;3777;48.722;8.110;2023-02-15T06:18:01;36.90;;;16.73;;
7471;SDS011;3777;48.722;8.110;2023-02-15T06:20:29;65.37;;;16.80;;
7471;SDS011;3777;48.722;8.110;2023-02-15T06:22:56;41.93;;;15.37;;
7471;SDS011;3777;48.722;8.110;2023-02-15T06:25:23;31.30;;;15.87;;
7471;SDS011;3777;48.722;8.110;2023-02-15T06:27:50;55.77;;;16.80;;
7471;SDS011;3777;48.722;8.110;2023-02-15T06:30:17;28.50;;;15.17;;
7471;SDS011;3777;48.722;8.110;2023-02-15T06:32:44;34.47;;;15.03;;
7471;SDS011;3777;48.722;8.110;2023-02-15T06:35:11;34.20;;;15.90;;
7471;SDS011;3777;48.722;8.110;2023-02-15T06:37:39;33.87;;;15.10;;
7471;SDS011;3777;48.722;8.110;2023-02-15T06:40:08;36.37;;;15.40;;
7471;SDS011;3777;48.722;8.110;2023-02-15T06:42:35;23.47;;;13.70;;
7471;SDS011;3777;48.722;8.110;2023-02-15T06:45:02;25.57;;;13.70;;
7471;SDS011;3777;48.722;8.110;2023-02-15T06:47:29;23.37;;;14.50;;
7471;SDS011;3777;48.722;8.110;2023-02-15T06:49:56;20.80;;;13.60;;
7471;SDS011;3777;48.722;8.110;2023-02-15T06:52:23;27.87;;;13.53;;
7471;SDS011;3777;48.722;8.110;2023-02-15T06:54:52;20.70;;;13.77;;
7471;SDS011;3777;48.722;8.110;2023-02-15T06:57:19;31.37;;;13.80;;
7471;SDS011;3777;48.722;8.110;2023-02-15T06:59:46;28.93;;;14.40;;
7471;SDS011;3777;48.722;8.110;2023-02-15T07:02:13;26.60;;;13.43;;
7471;SDS011;3777;48.722;8.110;2023-02-15T07:04:40;22.23;;;13.23;;
7471;SDS011;3777;48.722;8.110;2023-02-15T07:07:08;22.97;;;12.70;;
7471;SDS011;3777;48.722;8.110;2023-02-15T07:09:36;19.03;;;11.67;;
7471;SDS011;3777;48.722;8.110;2023-02-15T07:12:04;21.20;;;12.17;;
7471;SDS011;3777;48.722;8.110;2023-02-15T07:14:50;17.10;;;11.27;;
7471;SDS011;3777;48.722;8.110;2023-02-15T07:17:17;20.47;;;12.13;;
7471;SDS011;3777;48.722;8.110;2023-02-15T07:19:44;27.13;;;12.63;;
7471;SDS011;3777;48.722;8.110;2023-02-15T07:22:11;18.97;;;11.87;;
7471;SDS011;3777;48.722;8.110;2023-02-15T07:24:38;17.00;;;11.23;;
7471;SDS011;3777;48.722;8.110;2023-02-15T07:27:07;18.70;;;13.07;;
7471;SDS011;3777;48.722;8.110;2023-02-15T07:29:34;17.17;;;12.17;;
7471;SDS011;3777;48.722;8.110;2023-02-15T07:32:01;20.33;;;12.87;;
7471;SDS011;3777;48.722;8.110;2023-02-15T07:34:28;22.07;;;12.43;;
7471;SDS011;3777;48.722;8.110;2023-02-15T07:36:55;18.80;;;13.23;;
7471;SDS011;3777;48.722;8.110;2023-02-15T07:39:22;22.00;;;12.47;;
7471;SDS011;3777;48.722;8.110;2023-02-15T07:41:49;19.03;;;11.47;;
7471;SDS011;3777;48.722;8.110;2023-02-15T07:44:17;22.67;;;12.83;;
7471;SDS011;3777;48.722;8.110;2023-02-15T07:46:44;16.60;;;11.73;;
7471;SDS011;3777;48.722;8.110;2023-02-15T07:49:11;15.80;;;11.20;;
7471;SDS011;3777;48.722;8.110;2023-02-15T07:51:38;32.73;;;16.90;;
7471;SDS011;3777;48.722;8.110;2023-02-15T07:54:06;21.70;;;13.90;;
7471;SDS011;3777;48.722;8.110;2023-02-15T07:56:33;30.27;;;15.27;;
7471;SDS011;3777;48.722;8.110;2023-02-15T07:59:00;19.87;;;12.57;;
7471;SDS011;3777;48.722;8.110;2023-02-15T08:01:30;53.33;;;14.40;;
7471;SDS011;3777;48.722;8.110;2023-02-15T08:04:00;59.03;;;15.03;;
7471;SDS011;3777;48.722;8.110;2023-02-15T08:06:27;29.63;;;13.80;;
7471;SDS011;3777;48.722;8.110;2023-02-15T08:08:55;31.57;;;13.93;;
7471;SDS011;3777;48.722;8.110;2023-02-15T08:11:23;29.77;;;14.17;;
7471;SDS011;3777;48.722;8.110;2023-02-15T08:13:54;23.03;;;15.03;;
7471;SDS011;3777;48.722;8.110;2023-02-15T08:16:25;29.73;;;16.13;;
7471;SDS011;3777;48.722;8.110;2023-02-15T08:18:55;25.30;;;14.30;;
7471;SDS011;3777;48.722;8.110;2023-02-15T08:21:24;33.17;;;18.60;;
7471;SDS011;3777;48.722;8.110;2023-02-15T08:23:53;36.57;;;17.07;;
7471;SDS011;3777;48.722;8.110;2023-02-15T08:26:20;21.87;;;14.10;;
7471;SDS011;3777;48.722;8.110;2023-02-15T08:28:47;19.93;;;13.20;;
7471;SDS011;3777;48.722;8.110;2023-02-15T08:31:15;24.97;;;15.77;;
7471;SDS011;3777;48.722;8.110;2023-02-15T08:33:43;25.50;;;16.73;;
7471;SDS011;3777;48.722;8.110;2023-02-15T08:36:14;18.23;;;13.27;;
7471;SDS011;3777;48.722;8.110;2023-02-15T08:38:43;17.00;;;12.67;;
7471;SDS011;3777;48.722;8.110;2023-02-15T08:41:11;16.80;;;11.97;;
7471;SDS011;3777;48.722;8.110;2023-02-15T08:43:40;17.93;;;12.97;;
7471;SDS011;3777;48.722;8.110;2023-02-15T08:46:07;18.97;;;12.53;;
7471;SDS011;3777;48.722;8.110;2023-02-15T08:48:35;20.10;;;12.90;;
7471;SDS011;3777;48.722;8.110;2023-02-15T08:51:06;26.50;;;13.63;;
7471;SDS011;3777;48.722;8.110;2023-02-15T08:53:37;27.10;;;13.93;;
7471;SDS011;3777;48.722;8.110;2023-02-15T08:56:05;25.00;;;13.43;;
7471;SDS011;3777;48.722;8.110;2023-02-15T08:58:32;22.90;;;13.90;;
7471;SDS011;3777;48.722;8.110;2023-02-15T09:00:59;17.43;;;12.27;;
7471;SDS011;3777;48.722;8.110;2023-02-15T09:03:28;21.80;;;13.70;;
7471;SDS011;3777;48.722;8.110;2023-02-15T09:05:58;20.37;;;13.27;;
7471;SDS011;3777;48.722;8.110;2023-02-15T09:08:26;21.77;;;13.30;;
7471;SDS011;3777;48.722;8.110;2023-02-15T09:11:03;21.07;;;14.50;;
7471;SDS011;3777;48.722;8.110;2023-02-15T09:13:32;21.07;;;13.37;;
7471;SDS011;3777;48.722;8.110;2023-02-15T09:15:59;18.73;;;13.03;;
7471;SDS011;3777;48.722;8.110;2023-02-15T09:18:27;25.43;;;13.80;;
7471;SDS011;3777;48.722;8.110;2023-02-15T09:20:55;17.53;;;12.23;;
7471;SDS011;3777;48.722;8.110;2023-02-15T09:23:22;20.63;;;14.20;;
7471;SDS011;3777;48.722;8.110;2023-02-15T09:25:49;24.30;;;14.47;;
7471;SDS011;3777;48.722;8.110;2023-02-15T09:28:18;24.87;;;13.70;;
7471;SDS011;3777;48.722;8.110;2023-02-15T09:30:44;18.83;;;13.63;;
7471;SDS011;3777;48.722;8.110;2023-02-15T09:33:11;19.70;;;13.50;;
7471;SDS011;3777;48.722;8.110;2023-02-15T09:35:38;18.07;;;12.97;;
7471;SDS011;3777;48.722;8.110;2023-02-15T09:38:05;20.00;;;13.80;;
7471;SDS011;3777;48.722;8.110;2023-02-15T09:40:33;19.30;;;13.93;;
7471;SDS011;3777;48.722;8.110;2023-02-15T09:46:09;17.70;;;13.20;;
7471;SDS011;3777;48.722;8.110;2023-02-15T09:48:44;17.87;;;13.63;;
7471;SDS011;3777;48.722;8.110;2023-02-15T09:51:22;17.93;;;13.00;;
7471;SDS011;3777;48.722;8.110;2023-02-15T09:54:09;18.03;;;13.50;;
7471;SDS011;3777;48.722;8.110;2023-02-15T09:56:47;18.97;;;13.70;;
7471;SDS011;3777;48.722;8.110;2023-02-15T09:59:21;18.83;;;13.90;;
7471;SDS011;3777;48.722;8.110;2023-02-15T10:01:59;19.03;;;13.50;;
7471;SDS011;3777;48.722;8.110;2023-02-15T10:04:41;18.27;;;13.73;;
7471;SDS011;3777;48.722;8.110;2023-02-15T10:07:20;21.33;;;15.67;;
7471;SDS011;3777;48.722;8.110;2023-02-15T10:10:02;20.83;;;15.00;;
7471;SDS011;3777;48.722;8.110;2023-02-15T10:12:47;20.37;;;14.23;;
7471;SDS011;3777;48.722;8.110;2023-02-15T10:15:30;19.83;;;14.00;;
7471;SDS011;3777;48.722;8.110;2023-02-15T10:18:23;20.50;;;14.40;;
7471;SDS011;3777;48.722;8.110;2023-02-15T10:21:02;20.73;;;14.87;;
7471;SDS011;3777;48.722;8.110;2023-02-15T10:23:43;18.97;;;14.33;;
7471;SDS011;3777;48.722;8.110;2023-02-15T10:26:25;18.60;;;13.67;;
7471;SDS011;3777;48.722;8.110;2023-02-15T10:28:59;21.00;;;15.03;;
7471;SDS011;3777;48.722;8.110;2023-02-15T10:31:32;16.77;;;13.27;;
7471;SDS011;3777;48.722;8.110;2023-02-15T10:34:12;19.53;;;12.80;;
7471;SDS011;3777;48.722;8.110;2023-02-15T10:36:55;19.47;;;14.20;;
7471;SDS011;3777;48.722;8.110;2023-02-15T10:39:45;23.13;;;15.20;;
7471;SDS011;3777;48.722;8.110;2023-02-15T10:42:22;23.00;;;15.77;;
7471;SDS011;3777;48.722;8.110;2023-02-15T10:44:58;19.73;;;14.13;;
7471;SDS011;3777;48.722;8.110;2023-02-15T10:47:38;17.87;;;12.70;;
7471;SDS011;3777;48.722;8.110;2023-02-15T10:50:20;22.30;;;16.20;;
7471;SDS011;3777;48.722;8.110;2023-02-15T10:53:09;20.37;;;14.47;;
7471;SDS011;3777;48.722;8.110;2023-02-15T10:55:50;22.40;;;15.70;;
7471;SDS011;3777;48.722;8.110;2023-02-15T10:58:24;23.43;;;17.07;;
7471;SDS011;3777;48.722;8.110;2023-02-15T11:01:01;27.67;;;19.10;;
7471;SDS011;3777;48.722;8.110;2023-02-15T11:03:39;22.70;;;16.20;;
7471;SDS011;3777;48.722;8.110;2023-02-15T11:06:15;23.47;;;16.57;;
7471;SDS011;3777;48.722;8.110;2023-02-15T11:08:46;20.93;;;15.30;;
7471;SDS011;3777;48.722;8.110;2023-02-15T11:11:19;28.07;;;17.50;;
7471;SDS011;3777;48.722;8.110;2023-02-15T11:13:53;27.37;;;16.43;;
7471;SDS011;3777;48.722;8.110;2023-02-15T11:16:23;25.70;;;17.00;;
7471;SDS011;3777;48.722;8.110;2023-02-15T11:18:56;24.73;;;16.53;;
7471;SDS011;3777;48.722;8.110;2023-02-15T11:21:26;26.43;;;18.37;;
7471;SDS011;3777;48.722;8.110;2023-02-15T11:23:57;25.53;;;18.47;;
7471;SDS011;3777;48.722;8.110;2023-02-15T11:26:28;23.23;;;16.47;;
7471;SDS011;3777;48.722;8.110;2023-02-15T11:29:00;25.43;;;16.63;;
7471;SDS011;3777;48.722;8.110;2023-02-15T11:31:35;24.37;;;17.03;;
7471;SDS011;3777;48.722;8.110;2023-02-15T11:34:12;23.23;;;16.90;;
7471;SDS011;3777;48.722;8.110;2023-02-15T11:36:44;25.07;;;17.40;;
7471;SDS011;3777;48.722;8.110;2023-02-15T11:39:14;22.03;;;16.17;;
7471;SDS011;3777;48.722;8.110;2023-02-15T11:41:44;22.00;;;16.20;;
7471;SDS011;3777;48.722;8.110;2023-02-15T11:44:17;23.80;;;16.53;;
7471;SDS011;3777;48.722;8.110;2023-02-15T11:46:48;25.60;;;17.10;;
7471;SDS011;3777;48.722;8.110;2023-02-15T11:49:20;22.43;;;16.23;;
7471;SDS011;3777;48.722;8.110;2023-02-15T11:51:51;22.37;;;15.90;;
7471;SDS011;3777;48.722;8.110;2023-02-15T11:54:19;21.50;;;15.67;;
7471;SDS011;3777;48.722;8.110;2023-02-15T11:56:52;21.03;;;15.40;;
7471;SDS011;3777;48.722;8.110;2023-02-15T11:59:21;24.83;;;18.20;;
7471;SDS011;3777;48.722;8.110;2023-02-15T12:01:56;25.73;;;18.33;;
7471;SDS011;3777;48.722;8.110;2023-02-15T12:04:25;24.10;;;17.27;;
7471;SDS011;3777;48.722;8.110;2023-02-15T12:06:57;23.17;;;16.43;;
7471;SDS011;3777;48.722;8.110;2023-02-15T12:09:29;21.60;;;16.87;;
7471;SDS011;3777;48.722;8.110;2023-02-15T12:14:47;20.87;;;15.17;;
7471;SDS011;3777;48.722;8.110;2023-02-15T12:17:16;21.90;;;15.80;;
7471;SDS011;3777;48.722;8.110;2023-02-15T12:19:45;22.63;;;17.43;;
7471;SDS011;3777;48.722;8.110;2023-02-15T12:22:20;25.50;;;18.17;;
7471;SDS011;3777;48.722;8.110;2023-02-15T12:24:50;24.33;;;17.73;;
7471;SDS011;3777;48.722;8.110;2023-02-15T12:27:20;21.60;;;17.33;;
7471;SDS011;3777;48.722;8.110;2023-02-15T12:29:49;22.90;;;17.60;;
7471;SDS011;3777;48.722;8.110;2023-02-15T12:32:19;24.23;;;17.63;;
7471;SDS011;3777;48.722;8.110;2023-02-15T12:34:50;22.53;;;17.20;;
7471;SDS011;3777;48.722;8.110;2023-02-15T12:37:21;23.87;;;18.80;;
7471;SDS011;3777;48.722;8.110;2023-02-15T12:39:52;20.53;;;16.20;;
7471;SDS011;3777;48.722;8.110;2023-02-15T12:42:21;25.03;;;18.00;;
7471;SDS011;3777;48.722;8.110;2023-02-15T12:44:59;22.17;;;18.03;;
7471;SDS011;3777;48.722;8.110;2023-02-15T12:47:30;21.83;;;17.03;;
7471;SDS011;3777;48.722;8.110;2023-02-15T12:50:06;22.17;;;17.83;;
7471;SDS011;3777;48.722;8.110;2023-02-15T12:52:41;23.03;;;16.60;;
7471;SDS011;3777;48.722;8.110;2023-02-15T12:55:10;21.23;;;16.50;;
7471;SDS011;3777;48.722;8.110;2023-02-15T12:57:43;24.43;;;17.37;;
7471;SDS011;3777;48.722;8.110;2023-02-15T13:00:24;21.93;;;16.70;;
7471;SDS011;3777;48.722;8.110;2023-02-15T13:02:54;20.50;;;15.23;;
7471;SDS011;3777;48.722;8.110;2023-02-15T13:05:25;22.30;;;17.47;;
7471;SDS011;3777;48.722;8.110;2023-02-15T13:07:57;19.50;;;16.13;;
7471;SDS011;3777;48.722;8.110;2023-02-15T13:10:27;21.97;;;16.67;;
7471;SDS011;3777;48.722;8.110;2023-02-15T13:12:56;22.57;;;16.77;;
7471;SDS011;3777;48.722;8.110;2023-02-15T13:15:25;20.80;;;16.53;;
7471;SDS011;3777;48.722;8.110;2023-02-15T13:17:55;20.17;;;16.33;;
7471;SDS011;3777;48.722;8.110;2023-02-15T13:20:24;22.93;;;17.67;;
7471;SDS011;3777;48.722;8.110;2023-02-15T13:22:54;21.77;;;17.47;;
7471;SDS011;3777;48.722;8.110;2023-02-15T13:25:25;23.40;;;17.90;;
7471;SDS011;3777;48.722;8.110;2023-02-15T13:27:56;23.97;;;18.50;;
7471;SDS011;3777;48.722;8.110;2023-02-15T13:30:28;21.37;;;17.03;;
7471;SDS011;3777;48.722;8.110;2023-02-15T13:33:01;19.93;;;15.87;;
7471;SDS011;3777;48.722;8.110;2023-02-15T13:35:34;23.77;;;17.80;;
7471;SDS011;3777;48.722;8.110;2023-02-15T13:38:11;21.33;;;15.90;;
7471;SDS011;3777;48.722;8.110;2023-02-15T13:40:48;20.90;;;16.00;;
7471;SDS011;3777;48.722;8.110;2023-02-15T13:43:25;23.23;;;17.00;;
7471;SDS011;3777;48.722;8.110;2023-02-15T13:46:04;20.87;;;16.03;;
7471;SDS011;3777;48.722;8.110;2023-02-15T13:48:44;20.40;;;15.73;;
7471;SDS011;3777;48.722;8.110;2023-02-15T13:51:21;20.23;;;16.47;;
7471;SDS011;3777;48.722;8.110;2023-02-15T13:56:49;21.80;;;16.97;;
7471;SDS011;3777;48.722;8.110;2023-02-15T13:59:31;22.53;;;17.00;;
7471;SDS011;3777;48.722;8.110;2023-02-15T14:05:22;20.40;;;14.90;;
7471;SDS011;3777;48.722;8.110;2023-02-15T14:08:02;21.70;;;16.27;;
7471;SDS011;3777;48.722;8.110;2023-02-15T14:10:51;22.17;;;17.07;;
7471;SDS011;3777;48.722;8.110;2023-02-15T14:13:36;20.33;;;16.87;;
7471;SDS011;3777;48.722;8.110;2023-02-15T14:16:28;24.40;;;17.53;;
7471;SDS011;3777;48.722;8.110;2023-02-15T14:19:03;23.30;;;17.60;;
7471;SDS011;3777;48.722;8.110;2023-02-15T14:21:38;23.83;;;19.20;;
7471;SDS011;3777;48.722;8.110;2023-02-15T14:24:17;25.13;;;18.53;;
7471;SDS011;3777;48.722;8.110;2023-02-15T14:26:55;24.67;;;18.57;;
7471;SDS011;3777;48.722;8.110;2023-02-15T14:29:39;22.00;;;17.57;;
7471;SDS011;3777;48.722;8.110;2023-02-15T14:32:13;24.70;;;18.73;;
7471;SDS011;3777;48.722;8.110;2023-02-15T14:34:45;24.47;;;18.73;;
7471;SDS011;3777;48.722;8.110;2023-02-15T14:37:17;23.30;;;18.20;;
7471;SDS011;3777;48.722;8.110;2023-02-15T14:39:54;24.03;;;18.83;;
7471;SDS011;3777;48.722;8.110;2023-02-15T14:42:43;29.63;;;21.27;;
7471;SDS011;3777;48.722;8.110;2023-02-15T14:45:18;26.70;;;19.67;;
7471;SDS011;3777;48.722;8.110;2023-02-15T14:47:55;28.97;;;20.77;;
7471;SDS011;3777;48.722;8.110;2023-02-15T14:50:41;28.40;;;21.17;;
7471;SDS011;3777;48.722;8.110;2023-02-15T14:53:17;27.03;;;20.10;;
7471;SDS011;3777;48.722;8.110;2023-02-15T14:56:15;28.90;;;21.43;;
7471;SDS011;3777;48.722;8.110;2023-02-15T14:58:54;25.10;;;20.03;;
7471;SDS011;3777;48.722;8.110;2023-02-15T15:01:39;26.77;;;20.37;;
7471;SDS011;3777;48.722;8.110;2023-02-15T15:04:07;28.33;;;21.53;;
7471;SDS011;3777;48.722;8.110;2023-02-15T15:06:39;28.73;;;22.13;;
7471;SDS011;3777;48.722;8.110;2023-02-15T15:09:12;28.10;;;21.50;;
7471;SDS011;3777;48.722;8.110;2023-02-15T15:11:48;28.17;;;21.27;;
7471;SDS011;3777;48.722;8.110;2023-02-15T15:17:10;29.70;;;21.77;;
7471;SDS011;3777;48.722;8.110;2023-02-15T15:22:33;29.80;;;22.23;;
7471;SDS011;3777;48.722;8.110;2023-02-15T15:25:02;29.50;;;22.17;;
7471;SDS011;3777;48.722;8.110;2023-02-15T15:27:39;30.67;;;22.77;;
7471;SDS011;3777;48.722;8.110;2023-02-15T15:37:01;32.33;;;22.67;;
7471;SDS011;3777;48.722;8.110;2023-02-15T15:39:58;31.17;;;21.57;;